createdAt,value
2023-04-06T00:00:55.700Z,967.18
2023-04-06T00:01:55.731Z,967.19
2023-04-06T00:02:55.691Z,967.22
2023-04-06T00:03:55.656Z,967.19
2023-04-06T00:04:55.663Z,967.17
2023-04-06T00:05:55.631Z,967.19
2023-04-06T00:06:55.628Z,967.20
2023-04-06T00:07:55.642Z,967.15
2023-04-06T00:08:55.587Z,967.12
2023-04-06T00:09:55.603Z,967.15
2023-04-06T00:10:55.590Z,967.18
2023-04-06T00:11:55.577Z,967.10
2023-04-06T00:12:55.547Z,967.17
2023-04-06T00:13:56.020Z,967.08
2023-04-06T00:14:55.523Z,967.17
2023-04-06T00:15:55.533Z,967.12
2023-04-06T00:16:55.534Z,967.13
2023-04-06T00:17:55.530Z,967.14
2023-04-06T00:18:55.773Z,967.13
2023-04-06T00:19:55.470Z,967.18
2023-04-06T00:20:55.458Z,967.14
2023-04-06T00:21:55.493Z,967.16
2023-04-06T00:22:55.444Z,967.14
2023-04-06T00:23:55.456Z,967.15
2023-04-06T00:24:55.428Z,967.13
2023-04-06T00:25:55.423Z,967.13
2023-04-06T00:26:55.399Z,967.14
2023-04-06T00:27:55.408Z,967.15
2023-04-06T00:28:55.387Z,967.15
2023-04-06T00:29:55.381Z,967.15
2023-04-06T00:30:55.364Z,967.11
2023-04-06T00:31:55.344Z,967.16
2023-04-06T00:32:55.383Z,967.13
2023-04-06T00:33:55.348Z,967.18
2023-04-06T00:34:55.330Z,967.10
2023-04-06T00:35:55.330Z,967.13
2023-04-06T00:36:55.306Z,967.17
2023-04-06T00:37:55.276Z,967.12
2023-04-06T00:38:55.277Z,967.16
2023-04-06T00:39:55.298Z,967.17
2023-04-06T00:40:55.266Z,967.10
2023-04-06T00:41:55.252Z,967.15
2023-04-06T00:42:55.236Z,967.17
2023-04-06T00:43:55.210Z,967.17
2023-04-06T00:44:55.219Z,967.23
2023-04-06T00:45:55.222Z,967.11
2023-04-06T00:46:55.208Z,967.14
2023-04-06T00:47:55.245Z,967.24
2023-04-06T00:48:55.156Z,967.17
2023-04-06T00:49:55.153Z,967.22
2023-04-06T00:50:55.143Z,967.21
2023-04-06T00:51:55.136Z,967.14
2023-04-06T00:52:55.157Z,967.12
2023-04-06T00:53:55.097Z,967.18
2023-04-06T00:54:55.087Z,967.13
2023-04-06T00:55:55.100Z,967.16
2023-04-06T00:56:55.095Z,967.11
2023-04-06T00:57:55.097Z,967.13
2023-04-06T00:58:55.160Z,967.13
2023-04-06T00:59:55.042Z,967.13
2023-04-06T01:00:55.030Z,967.15
2023-04-06T01:01:55.123Z,967.13
2023-04-06T01:02:55.061Z,967.18
2023-04-06T01:03:55.006Z,967.16
2023-04-06T01:05:04.025Z,967.17
2023-04-06T01:05:54.968Z,967.17
2023-04-06T01:06:54.957Z,967.19
2023-04-06T01:07:55.003Z,967.18
2023-04-06T01:08:54.993Z,967.15
2023-04-06T01:09:54.948Z,967.13
2023-04-06T01:10:54.948Z,967.17
2023-04-06T01:11:54.927Z,967.16
2023-04-06T01:12:54.908Z,967.14
2023-04-06T01:13:54.914Z,967.14
2023-04-06T01:14:54.895Z,967.11
2023-04-06T01:15:54.898Z,967.06
2023-04-06T01:16:54.850Z,967.10
2023-04-06T01:17:54.909Z,967.08
2023-04-06T01:18:54.843Z,967.13
2023-04-06T01:19:54.854Z,967.10
2023-04-06T01:20:54.832Z,967.13
2023-04-06T01:21:54.793Z,967.14
2023-04-06T01:22:54.817Z,967.12
2023-04-06T01:23:54.772Z,967.08
2023-04-06T01:24:54.781Z,967.06
2023-04-06T01:25:54.801Z,967.05
2023-04-06T01:26:54.763Z,967.10
2023-04-06T01:27:54.762Z,967.13
2023-04-06T01:28:54.720Z,967.09
2023-04-06T01:29:54.726Z,967.08
2023-04-06T01:30:54.706Z,967.05
2023-04-06T01:31:54.783Z,967.07
2023-04-06T01:32:54.740Z,967.06
2023-04-06T01:33:54.671Z,967.13
2023-04-06T01:34:54.654Z,967.04
2023-04-06T01:35:54.700Z,967.04
2023-04-06T01:36:54.640Z,967.02
2023-04-06T01:37:54.643Z,967.02
2023-04-06T01:38:54.609Z,966.98
2023-04-06T01:39:54.609Z,966.98
2023-04-06T01:40:54.617Z,967.02
2023-04-06T01:41:54.602Z,966.97
2023-04-06T01:42:54.718Z,967.01
2023-04-06T01:43:54.565Z,967.02
2023-04-06T01:44:54.542Z,967.00
2023-04-06T01:45:54.552Z,967.03
2023-04-06T01:46:54.795Z,966.98
2023-04-06T01:47:54.577Z,966.94
2023-04-06T01:48:54.518Z,966.95
2023-04-06T01:49:54.507Z,966.96
2023-04-06T01:50:54.514Z,966.95
2023-04-06T01:51:54.464Z,966.88
2023-04-06T01:52:54.461Z,966.85
2023-04-06T01:53:54.449Z,966.88
2023-04-06T01:54:54.452Z,966.93
2023-04-06T01:55:54.453Z,966.88
2023-04-06T01:56:54.469Z,966.90
2023-04-06T01:57:54.399Z,966.91
2023-04-06T01:58:54.480Z,966.92
2023-04-06T01:59:54.443Z,966.86
2023-04-06T02:00:54.410Z,966.88
2023-04-06T02:01:54.415Z,966.85
2023-04-06T02:02:54.445Z,966.87
2023-04-06T02:03:54.337Z,966.89
2023-04-06T02:04:54.376Z,966.85
2023-04-06T02:05:54.533Z,966.90
2023-04-06T02:06:54.320Z,966.82
2023-04-06T02:07:54.288Z,966.88
2023-04-06T02:08:54.280Z,966.89
2023-04-06T02:09:54.271Z,966.88
2023-04-06T02:10:54.350Z,966.88
2023-04-06T02:11:54.259Z,966.93
2023-04-06T02:12:54.259Z,966.87
2023-04-06T02:13:54.223Z,966.88
2023-04-06T02:14:54.259Z,966.87
2023-04-06T02:15:54.212Z,966.84
2023-04-06T02:16:54.276Z,966.86
2023-04-06T02:17:54.295Z,966.88
2023-04-06T02:18:54.169Z,966.88
2023-04-06T02:19:54.159Z,966.83
2023-04-06T02:20:54.170Z,966.87
2023-04-06T02:21:54.151Z,966.87
2023-04-06T02:22:54.165Z,966.91
2023-04-06T02:23:54.136Z,966.84
2023-04-06T02:24:54.110Z,966.90
2023-04-06T02:25:54.090Z,966.89
2023-04-06T02:26:54.080Z,966.90
2023-04-06T02:27:54.070Z,966.89
2023-04-06T02:28:54.182Z,966.92
2023-04-06T02:29:54.069Z,966.89
2023-04-06T02:30:54.039Z,966.91
2023-04-06T02:31:54.058Z,966.94
2023-04-06T02:32:54.068Z,966.87
2023-04-06T02:33:54.056Z,966.86
2023-04-06T02:34:54.076Z,966.85
2023-04-06T02:35:54.030Z,966.89
2023-04-06T02:36:53.977Z,966.83
2023-04-06T02:37:53.977Z,966.86
2023-04-06T02:38:53.986Z,966.89
2023-04-06T02:39:53.941Z,966.86
2023-04-06T02:40:53.974Z,966.81
2023-04-06T02:41:53.965Z,966.81
2023-04-06T02:42:53.910Z,966.79
2023-04-06T02:43:53.894Z,966.83
2023-04-06T02:44:53.902Z,966.83
2023-04-06T02:45:53.885Z,966.78
2023-04-06T02:46:53.935Z,966.77
2023-04-06T02:47:53.875Z,966.77
2023-04-06T02:48:53.844Z,966.80
2023-04-06T02:49:53.849Z,966.74
2023-04-06T02:50:53.821Z,966.84
2023-04-06T02:51:53.842Z,966.76
2023-04-06T02:52:53.880Z,966.72
2023-04-06T02:53:53.793Z,966.70
2023-04-06T02:54:53.774Z,966.84
2023-04-06T02:55:53.809Z,966.79
2023-04-06T02:56:53.750Z,966.78
2023-04-06T02:57:53.759Z,966.72
2023-04-06T02:58:53.894Z,966.79
2023-04-06T02:59:53.728Z,966.78
2023-04-06T03:00:53.707Z,966.74
2023-04-06T03:01:53.806Z,966.77
2023-04-06T03:02:53.823Z,966.77
2023-04-06T03:03:53.721Z,966.76
2023-04-06T03:04:53.704Z,966.77
2023-04-06T03:05:53.726Z,966.79
2023-04-06T03:06:53.642Z,966.73
2023-04-06T03:07:53.647Z,966.78
2023-04-06T03:08:53.632Z,966.75
2023-04-06T03:09:53.634Z,966.78
2023-04-06T03:10:53.599Z,966.80
2023-04-06T03:11:53.645Z,966.81
2023-04-06T03:12:53.616Z,966.83
2023-04-06T03:13:53.567Z,966.83
2023-04-06T03:14:53.568Z,966.75
2023-04-06T03:15:53.583Z,966.82
2023-04-06T03:16:53.571Z,966.82
2023-04-06T03:17:53.601Z,966.77
2023-04-06T03:18:53.556Z,966.79
2023-04-06T03:19:53.538Z,966.74
2023-04-06T03:20:53.504Z,966.74
2023-04-06T03:21:53.535Z,966.75
2023-04-06T03:22:53.463Z,966.77
2023-04-06T03:23:53.547Z,966.73
2023-04-06T03:24:53.454Z,966.74
2023-04-06T03:25:53.478Z,966.72
2023-04-06T03:26:53.447Z,966.77
2023-04-06T03:27:53.408Z,966.76
2023-04-06T03:28:53.398Z,966.73
2023-04-06T03:29:53.454Z,966.76
2023-04-06T03:30:53.431Z,966.72
2023-04-06T03:31:53.478Z,966.75
2023-04-06T03:32:53.405Z,966.80
2023-04-06T03:33:53.343Z,966.81
2023-04-06T03:34:53.357Z,966.81
2023-04-06T03:35:53.466Z,966.80
2023-04-06T03:37:06.820Z,966.84
2023-04-06T03:37:54.356Z,966.83
2023-04-06T03:38:53.321Z,966.80
2023-04-06T03:39:53.278Z,966.84
2023-04-06T03:40:53.264Z,966.82
2023-04-06T03:41:53.290Z,966.83
2023-04-06T03:42:53.278Z,966.84
2023-04-06T03:43:53.244Z,966.87
2023-04-06T03:44:53.222Z,966.81
2023-04-06T03:45:53.210Z,966.88
2023-04-06T03:46:53.327Z,966.85
2023-04-06T03:47:53.265Z,966.85
2023-04-06T03:48:53.273Z,966.91
2023-04-06T03:49:53.199Z,966.84
2023-04-06T03:50:53.155Z,966.91
2023-04-06T03:51:53.144Z,966.83
2023-04-06T03:52:53.131Z,966.90
2023-04-06T03:53:53.139Z,966.92
2023-04-06T03:54:53.217Z,966.93
2023-04-06T03:55:53.123Z,966.90
2023-04-06T03:56:53.128Z,966.84
2023-04-06T03:57:53.558Z,966.91
2023-04-06T03:58:53.088Z,966.90
2023-04-06T03:59:53.090Z,966.89
2023-04-06T04:00:53.111Z,966.86
2023-04-06T04:01:53.043Z,966.85
2023-04-06T04:02:53.070Z,966.90
2023-04-06T04:03:53.088Z,966.93
2023-04-06T04:04:53.044Z,966.94
2023-04-06T04:05:53.026Z,966.93
2023-04-06T04:06:53.054Z,966.97
2023-04-06T04:07:52.986Z,966.93
2023-04-06T04:08:52.957Z,966.92
2023-04-06T04:09:52.964Z,966.94
2023-04-06T04:10:52.938Z,966.94
2023-04-06T04:11:52.957Z,967.02
2023-04-06T04:12:52.964Z,967.00
2023-04-06T04:13:52.911Z,967.00
2023-04-06T04:14:52.889Z,966.97
2023-04-06T04:15:52.922Z,967.03
2023-04-06T04:16:52.996Z,966.97
2023-04-06T04:17:52.911Z,967.02
2023-04-06T04:18:52.890Z,967.00
2023-04-06T04:19:52.837Z,966.96
2023-04-06T04:20:52.825Z,967.01
2023-04-06T04:21:52.862Z,967.03
2023-04-06T04:22:52.811Z,966.99
2023-04-06T04:23:52.808Z,966.99
2023-04-06T04:24:52.818Z,966.99
2023-04-06T04:25:52.804Z,967.04
2023-04-06T04:26:52.762Z,967.03
2023-04-06T04:27:52.775Z,967.01
2023-04-06T04:28:52.746Z,967.01
2023-04-06T04:29:53.200Z,967.04
2023-04-06T04:30:52.776Z,967.08
2023-04-06T04:31:52.743Z,967.12
2023-04-06T04:32:52.769Z,967.14
2023-04-06T04:33:52.708Z,967.21
2023-04-06T04:34:52.689Z,967.17
2023-04-06T04:35:52.728Z,967.18
2023-04-06T04:36:52.723Z,967.21
2023-04-06T04:37:52.650Z,967.13
2023-04-06T04:38:52.678Z,967.08
2023-04-06T04:39:52.639Z,967.14
2023-04-06T04:40:52.666Z,967.20
2023-04-06T04:41:52.626Z,967.14
2023-04-06T04:42:52.642Z,967.19
2023-04-06T04:43:52.597Z,967.17
2023-04-06T04:44:52.572Z,967.17
2023-04-06T04:45:52.619Z,967.17
2023-04-06T04:46:52.579Z,967.18
2023-04-06T04:47:52.581Z,967.19
2023-04-06T04:48:52.616Z,967.21
2023-04-06T04:49:52.525Z,967.20
2023-04-06T04:50:52.531Z,967.17
2023-04-06T04:51:52.505Z,967.21
2023-04-06T04:52:52.489Z,967.26
2023-04-06T04:53:52.518Z,967.21
2023-04-06T04:54:52.465Z,967.26
2023-04-06T04:55:52.539Z,967.25
2023-04-06T04:56:52.493Z,967.22
2023-04-06T04:57:52.487Z,967.20
2023-04-06T04:58:52.461Z,967.20
2023-04-06T04:59:52.414Z,967.16
2023-04-06T05:00:52.453Z,967.17
2023-04-06T05:01:55.363Z,967.19
2023-04-06T05:02:52.420Z,967.19
2023-04-06T05:03:52.699Z,967.23
2023-04-06T05:04:52.404Z,967.21
2023-04-06T05:05:52.353Z,967.18
2023-04-06T05:06:52.365Z,967.22
2023-04-06T05:07:52.367Z,967.16
2023-04-06T05:08:52.355Z,967.19
2023-04-06T05:09:52.342Z,967.19
2023-04-06T05:10:52.294Z,967.18
2023-04-06T05:11:52.285Z,967.20
2023-04-06T05:12:52.281Z,967.23
2023-04-06T05:13:52.343Z,967.22
2023-04-06T05:14:52.290Z,967.26
2023-04-06T05:15:52.288Z,967.18
2023-04-06T05:16:52.229Z,967.25
2023-04-06T05:17:52.348Z,967.19
2023-04-06T05:18:52.209Z,967.25
2023-04-06T05:19:52.234Z,967.25
2023-04-06T05:20:52.225Z,967.25
2023-04-06T05:21:52.213Z,967.26
2023-04-06T05:22:52.162Z,967.23
2023-04-06T05:23:52.154Z,967.22
2023-04-06T05:24:52.165Z,967.21
2023-04-06T05:25:52.204Z,967.24
2023-04-06T05:26:52.150Z,967.25
2023-04-06T05:27:52.111Z,967.26
2023-04-06T05:28:52.123Z,967.22
2023-04-06T05:29:52.120Z,967.23
2023-04-06T05:30:52.116Z,967.25
2023-04-06T05:31:52.135Z,967.21
2023-04-06T05:32:52.098Z,967.26
2023-04-06T05:33:52.091Z,967.29
2023-04-06T05:34:52.034Z,967.28
2023-04-06T05:35:52.043Z,967.22
2023-04-06T05:36:52.033Z,967.27
2023-04-06T05:37:52.016Z,967.24
2023-04-06T05:38:52.054Z,967.28
2023-04-06T05:39:51.975Z,967.27
2023-04-06T05:40:51.962Z,967.30
2023-04-06T05:41:51.966Z,967.26
2023-04-06T05:42:52.005Z,967.31
2023-04-06T05:43:51.955Z,967.23
2023-04-06T05:44:51.947Z,967.25
2023-04-06T05:45:51.943Z,967.30
2023-04-06T05:46:51.924Z,967.22
2023-04-06T05:47:51.908Z,967.24
2023-04-06T05:48:51.927Z,967.22
2023-04-06T05:49:51.908Z,967.24
2023-04-06T05:50:51.886Z,967.25
2023-04-06T05:51:51.840Z,967.23
2023-04-06T05:52:51.848Z,967.29
2023-04-06T05:53:51.826Z,967.33
2023-04-06T05:54:51.844Z,967.28
2023-04-06T05:55:51.827Z,967.26
2023-04-06T05:56:51.795Z,967.27
2023-04-06T05:57:51.771Z,967.30
2023-04-06T05:58:51.822Z,967.38
2023-04-06T05:59:51.762Z,967.36
2023-04-06T06:00:51.797Z,967.36
2023-04-06T06:01:51.776Z,967.31
2023-04-06T06:02:51.779Z,967.32
2023-04-06T06:03:51.704Z,967.35
2023-04-06T06:04:51.761Z,967.26
2023-04-06T06:05:51.686Z,967.34
2023-04-06T06:06:51.721Z,967.42
2023-04-06T06:07:51.680Z,967.36
2023-04-06T06:08:51.657Z,967.36
2023-04-06T06:09:51.641Z,967.34
2023-04-06T06:10:51.649Z,967.40
2023-04-06T06:11:51.623Z,967.42
2023-04-06T06:12:51.660Z,967.39
2023-04-06T06:13:51.595Z,967.42
2023-04-06T06:14:51.584Z,967.45
2023-04-06T06:15:51.584Z,967.35
2023-04-06T06:16:51.574Z,967.38
2023-04-06T06:17:51.644Z,967.39
2023-04-06T06:18:51.595Z,967.38
2023-04-06T06:19:51.532Z,967.39
2023-04-06T06:20:51.516Z,967.35
2023-04-06T06:21:51.526Z,967.31
2023-04-06T06:22:51.546Z,967.32
2023-04-06T06:23:51.500Z,967.30
2023-04-06T06:24:51.541Z,967.27
2023-04-06T06:25:51.466Z,967.30
2023-04-06T06:26:51.449Z,967.31
2023-04-06T06:27:51.693Z,967.38
2023-04-06T06:28:51.462Z,967.41
2023-04-06T06:29:51.437Z,967.41
2023-04-06T06:30:51.460Z,967.37
2023-04-06T06:31:51.436Z,967.39
2023-04-06T06:32:51.506Z,967.38
2023-04-06T06:33:51.415Z,967.38
2023-04-06T06:34:51.418Z,967.40
2023-04-06T06:35:51.439Z,967.41
2023-04-06T06:36:52.802Z,967.43
2023-04-06T06:37:51.346Z,967.40
2023-04-06T06:38:51.358Z,967.41
2023-04-06T06:39:51.338Z,967.43
2023-04-06T06:40:51.342Z,967.45
2023-04-06T06:41:51.307Z,967.41
2023-04-06T06:42:51.337Z,967.41
2023-04-06T06:43:51.271Z,967.43
2023-04-06T06:44:51.299Z,967.36
2023-04-06T06:45:51.345Z,967.40
2023-04-06T06:46:51.266Z,967.40
2023-04-06T06:47:53.634Z,967.38
2023-04-06T06:48:51.311Z,967.40
2023-04-06T06:49:51.225Z,967.38
2023-04-06T06:50:51.201Z,967.39
2023-04-06T06:51:51.190Z,967.44
2023-04-06T06:52:51.197Z,967.37
2023-04-06T06:53:51.178Z,967.42
2023-04-06T06:54:51.270Z,967.40
2023-04-06T06:55:51.139Z,967.42
2023-04-06T06:56:51.140Z,967.44
2023-04-06T06:57:51.128Z,967.46
2023-04-06T06:58:51.244Z,967.48
2023-04-06T06:59:51.103Z,967.42
2023-04-06T07:00:51.212Z,967.41
2023-04-06T07:01:51.081Z,967.45
2023-04-06T07:02:51.205Z,967.42
2023-04-06T07:03:51.128Z,967.40
2023-04-06T07:04:51.149Z,967.44
2023-04-06T07:05:51.106Z,967.41
2023-04-06T07:06:51.049Z,967.44
2023-04-06T07:07:51.023Z,967.42
2023-04-06T07:08:51.003Z,967.41
2023-04-06T07:09:51.038Z,967.41
2023-04-06T07:10:50.976Z,967.42
2023-04-06T07:11:50.974Z,967.42
2023-04-06T07:12:51.003Z,967.41
2023-04-06T07:13:51.033Z,967.48
2023-04-06T07:14:50.965Z,967.45
2023-04-06T07:15:50.962Z,967.41
2023-04-06T07:16:50.982Z,967.43
2023-04-06T07:17:50.934Z,967.41
2023-04-06T07:18:50.884Z,967.41
2023-04-06T07:19:50.927Z,967.46
2023-04-06T07:20:50.892Z,967.46
2023-04-06T07:21:50.902Z,967.53
2023-04-06T07:22:50.840Z,967.50
2023-04-06T07:23:50.847Z,967.46
2023-04-06T07:24:50.884Z,967.47
2023-04-06T07:25:50.863Z,967.46
2023-04-06T07:26:50.818Z,967.49
2023-04-06T07:27:50.808Z,967.47
2023-04-06T07:28:50.807Z,967.46
2023-04-06T07:29:50.764Z,967.42
2023-04-06T07:30:50.924Z,967.38
2023-04-06T07:31:50.840Z,967.47
2023-04-06T07:32:50.778Z,967.41
2023-04-06T07:33:50.721Z,967.49
2023-04-06T07:34:50.712Z,967.44
2023-04-06T07:35:50.755Z,967.49
2023-04-06T07:36:50.703Z,967.46
2023-04-06T07:37:50.729Z,967.51
2023-04-06T07:38:50.686Z,967.53
2023-04-06T07:39:50.655Z,967.48
2023-04-06T07:40:50.643Z,967.53
2023-04-06T07:41:50.638Z,967.44
2023-04-06T07:42:50.625Z,967.43
2023-04-06T07:43:50.689Z,967.48
2023-04-06T07:44:50.607Z,967.38
2023-04-06T07:45:50.654Z,967.42
2023-04-06T07:46:50.607Z,967.48
2023-04-06T07:47:50.612Z,967.50
2023-04-06T07:48:50.558Z,967.43
2023-04-06T07:49:50.580Z,967.47
2023-04-06T07:50:50.574Z,967.42
2023-04-06T07:51:50.521Z,967.46
2023-04-06T07:52:50.552Z,967.47
2023-04-06T07:53:50.547Z,967.41
2023-04-06T07:54:50.550Z,967.36
2023-04-06T07:55:50.524Z,967.39
2023-04-06T07:56:50.488Z,967.41
2023-04-06T07:57:50.454Z,967.36
2023-04-06T07:58:51.598Z,967.42
2023-04-06T07:59:50.439Z,967.41
2023-04-06T08:00:50.446Z,967.42
2023-04-06T08:01:50.476Z,967.36
2023-04-06T08:02:50.447Z,967.38
2023-04-06T08:03:50.527Z,967.33
2023-04-06T08:04:50.456Z,967.35
2023-04-06T08:05:50.371Z,967.33
2023-04-06T08:06:50.377Z,967.33
2023-04-06T08:07:50.375Z,967.37
2023-04-06T08:08:50.355Z,967.33
2023-04-06T08:09:50.380Z,967.38
2023-04-06T08:10:50.324Z,967.34
2023-04-06T08:11:50.315Z,967.35
2023-04-06T08:12:50.310Z,967.32
2023-04-06T08:13:50.317Z,967.34
2023-04-06T08:14:50.273Z,967.35
2023-04-06T08:15:50.369Z,967.34
2023-04-06T08:16:50.246Z,967.35
2023-04-06T08:17:50.261Z,967.34
2023-04-06T08:18:50.223Z,967.35
2023-04-06T08:19:50.223Z,967.43
2023-04-06T08:20:50.221Z,967.41
2023-04-06T08:21:50.189Z,967.42
2023-04-06T08:22:53.019Z,967.43
2023-04-06T08:23:50.175Z,967.44
2023-04-06T08:24:50.188Z,967.41
2023-04-06T08:25:50.179Z,967.44
2023-04-06T08:26:50.162Z,967.38
2023-04-06T08:27:50.127Z,967.44
2023-04-06T08:28:50.131Z,967.34
2023-04-06T08:29:50.138Z,967.45
2023-04-06T08:30:50.103Z,967.40
2023-04-06T08:31:50.131Z,967.38
2023-04-06T08:32:50.137Z,967.36
2023-04-06T08:33:50.058Z,967.43
2023-04-06T08:34:50.055Z,967.40
2023-04-06T08:35:50.072Z,967.38
2023-04-06T08:36:50.021Z,967.40
2023-04-06T08:37:50.083Z,967.40
2023-04-06T08:38:49.997Z,967.38
2023-04-06T08:39:49.997Z,967.42
2023-04-06T08:40:49.986Z,967.44
2023-04-06T08:41:49.984Z,967.44
2023-04-06T08:42:50.016Z,967.43
2023-04-06T08:43:49.964Z,967.51
2023-04-06T08:44:49.941Z,967.48
2023-04-06T08:45:49.936Z,967.50
2023-04-06T08:46:50.035Z,967.48
2023-04-06T08:47:49.936Z,967.46
2023-04-06T08:48:49.943Z,967.45
2023-04-06T08:49:49.916Z,967.41
2023-04-06T08:50:49.908Z,967.43
2023-04-06T08:51:49.859Z,967.44
2023-04-06T08:52:49.837Z,967.38
2023-04-06T08:53:49.878Z,967.41
2023-04-06T08:54:49.817Z,967.40
2023-04-06T08:55:49.833Z,967.44
2023-04-06T08:56:49.821Z,967.49
2023-04-06T08:57:49.807Z,967.47
2023-04-06T08:58:49.803Z,967.50
2023-04-06T08:59:49.780Z,967.47
2023-04-06T09:00:49.769Z,967.46
2023-04-06T09:01:49.845Z,967.46
2023-04-06T09:02:49.877Z,967.44
2023-04-06T09:03:49.906Z,967.41
2023-04-06T09:04:49.795Z,967.42
2023-04-06T09:05:49.692Z,967.42
2023-04-06T09:06:49.714Z,967.41
2023-04-06T09:07:49.690Z,967.45
2023-04-06T09:08:49.680Z,967.41
2023-04-06T09:09:49.664Z,967.44
2023-04-06T09:10:49.643Z,967.42
2023-04-06T09:11:49.647Z,967.35
2023-04-06T09:12:49.655Z,967.31
2023-04-06T09:13:49.654Z,967.30
2023-04-06T09:14:49.625Z,967.32
2023-04-06T09:15:49.605Z,967.31
2023-04-06T09:16:49.570Z,967.34
2023-04-06T09:17:49.597Z,967.25
2023-04-06T09:18:49.566Z,967.33
2023-04-06T09:19:49.580Z,967.32
2023-04-06T09:20:49.572Z,967.32
2023-04-06T09:21:49.516Z,967.29
2023-04-06T09:22:49.507Z,967.26
2023-04-06T09:23:49.606Z,967.30
2023-04-06T09:24:49.497Z,967.29
2023-04-06T09:25:49.488Z,967.25
2023-04-06T09:26:49.504Z,967.31
2023-04-06T09:27:49.450Z,967.30
2023-04-06T09:28:49.455Z,967.27
2023-04-06T09:29:49.467Z,967.33
2023-04-06T09:30:49.434Z,967.29
2023-04-06T09:31:49.502Z,967.29
2023-04-06T09:32:49.478Z,967.28
2023-04-06T09:33:49.386Z,967.30
2023-04-06T09:34:50.834Z,967.31
2023-04-06T09:35:49.403Z,967.26
2023-04-06T09:36:49.377Z,967.30
2023-04-06T09:37:49.346Z,967.25
2023-04-06T09:38:49.338Z,967.31
2023-04-06T09:39:49.324Z,967.25
2023-04-06T09:41:00.212Z,967.29
2023-04-06T09:41:50.294Z,967.22
2023-04-06T09:42:49.316Z,967.21
2023-04-06T09:43:49.304Z,967.23
2023-04-06T09:44:49.268Z,967.22
2023-04-06T09:45:49.305Z,967.23
2023-04-06T09:46:58.708Z,967.20
2023-04-06T09:47:50.367Z,967.23
2023-04-06T09:48:49.234Z,967.23
2023-04-06T09:49:49.261Z,967.19
2023-04-06T09:50:49.197Z,967.18
2023-04-06T09:51:49.192Z,967.18
2023-04-06T09:52:49.176Z,967.19
2023-04-06T09:53:49.184Z,967.14
2023-04-06T09:54:49.151Z,967.14
2023-04-06T09:55:49.193Z,967.10
2023-04-06T09:56:49.213Z,967.15
2023-04-06T09:57:49.130Z,967.18
2023-04-06T09:58:49.173Z,967.16
2023-04-06T09:59:49.227Z,967.14
2023-04-06T10:00:49.173Z,967.14
2023-04-06T10:01:49.098Z,967.16
2023-04-06T10:02:49.169Z,967.10
2023-04-06T10:03:49.175Z,967.10
2023-04-06T10:04:49.080Z,967.06
2023-04-06T10:05:49.046Z,967.06
2023-04-06T10:06:49.070Z,967.08
2023-04-06T10:07:59.680Z,967.11
2023-04-06T10:08:50.012Z,967.05
2023-04-06T10:09:49.089Z,967.07
2023-04-06T10:10:48.987Z,967.05
2023-04-06T10:11:48.958Z,967.03
2023-04-06T10:12:48.945Z,967.03
2023-04-06T10:13:48.961Z,967.07
2023-04-06T10:14:48.963Z,967.05
2023-04-06T10:15:48.955Z,967.07
2023-04-06T10:16:48.962Z,967.07
2023-04-06T10:17:48.970Z,967.04
2023-04-06T10:18:48.881Z,967.08
2023-04-06T10:19:48.883Z,967.03
2023-04-06T10:20:48.886Z,967.03
2023-04-06T10:21:48.885Z,967.04
2023-04-06T10:22:48.851Z,967.07
2023-04-06T10:23:48.856Z,967.05
2023-04-06T10:24:48.811Z,967.03
2023-04-06T10:25:48.812Z,967.02
2023-04-06T10:26:48.802Z,967.02
2023-04-06T10:27:48.787Z,967.00
2023-04-06T10:28:48.864Z,966.96
2023-04-06T10:29:48.771Z,966.99
2023-04-06T10:30:48.746Z,966.92
2023-04-06T10:31:48.774Z,966.92
2023-04-06T10:32:48.786Z,966.90
2023-04-06T10:33:48.765Z,966.96
2023-04-06T10:34:48.762Z,966.90
2023-04-06T10:35:48.794Z,966.85
2023-04-06T10:36:48.706Z,966.84
2023-04-06T10:37:48.672Z,966.85
2023-04-06T10:38:48.705Z,966.81
2023-04-06T10:39:48.690Z,966.78
2023-04-06T10:40:48.712Z,966.82
2023-04-06T10:41:48.625Z,966.83
2023-04-06T10:42:48.617Z,966.79
2023-04-06T10:43:48.834Z,966.79
2023-04-06T10:44:48.635Z,966.79
2023-04-06T10:45:48.620Z,966.73
2023-04-06T10:46:48.629Z,966.77
2023-04-06T10:47:48.670Z,966.78
2023-04-06T10:48:48.553Z,966.71
2023-04-06T10:49:48.581Z,966.72
2023-04-06T10:50:48.540Z,966.73
2023-04-06T10:51:48.514Z,966.71
2023-04-06T10:52:48.532Z,966.73
2023-04-06T10:53:48.517Z,966.75
2023-04-06T10:54:50.370Z,966.70
2023-04-06T10:55:48.498Z,966.69
2023-04-06T10:56:48.464Z,966.68
2023-04-06T10:57:48.485Z,966.67
2023-04-06T10:58:48.479Z,966.58
2023-04-06T10:59:48.429Z,966.65
2023-04-06T11:00:51.043Z,966.63
2023-04-06T11:01:48.560Z,966.63
2023-04-06T11:02:48.425Z,966.65
2023-04-06T11:03:48.400Z,966.64
2023-04-06T11:04:48.394Z,966.64
2023-04-06T11:05:57.142Z,966.60
2023-04-06T11:06:48.381Z,966.54
2023-04-06T11:07:48.348Z,966.52
2023-04-06T11:08:48.331Z,966.52
2023-04-06T11:09:56.151Z,966.50
2023-04-06T11:10:49.327Z,966.55
2023-04-06T11:11:48.290Z,966.56
2023-04-06T11:12:48.302Z,966.55
2023-04-06T11:13:48.268Z,966.50
2023-04-06T11:14:48.255Z,966.54
2023-04-06T11:15:48.274Z,966.43
2023-04-06T11:16:48.290Z,966.48
2023-04-06T11:17:48.240Z,966.44
2023-04-06T11:18:48.249Z,966.50
2023-04-06T11:19:48.235Z,966.45
2023-04-06T11:20:48.189Z,966.49
2023-04-06T11:21:48.269Z,966.42
2023-04-06T11:22:48.165Z,966.41
2023-04-06T11:23:48.205Z,966.42
2023-04-06T11:24:48.176Z,966.41
2023-04-06T11:25:48.133Z,966.35
2023-04-06T11:26:48.120Z,966.36
2023-04-06T11:27:48.108Z,966.38
2023-04-06T11:28:48.099Z,966.33
2023-04-06T11:29:48.157Z,966.29
2023-04-06T11:30:48.104Z,966.28
2023-04-06T11:31:48.063Z,966.33
2023-04-06T11:32:48.115Z,966.31
2023-04-06T11:33:48.085Z,966.35
2023-04-06T11:34:48.041Z,966.38
2023-04-06T11:35:48.098Z,966.31
2023-04-06T11:36:48.057Z,966.30
2023-04-06T11:37:48.016Z,966.34
2023-04-06T11:38:47.999Z,966.35
2023-04-06T11:39:47.982Z,966.31
2023-04-06T11:40:47.986Z,966.29
2023-04-06T11:41:48.024Z,966.24
2023-04-06T11:42:47.984Z,966.30
2023-04-06T11:43:47.932Z,966.26
2023-04-06T11:44:47.921Z,966.33
2023-04-06T11:45:47.916Z,966.23
2023-04-06T11:46:47.926Z,966.33
2023-04-06T11:47:47.903Z,966.22
2023-04-06T11:48:48.170Z,966.23
2023-04-06T11:49:47.870Z,966.22
2023-04-06T11:50:47.852Z,966.23
2023-04-06T11:51:47.854Z,966.23
2023-04-06T11:52:47.845Z,966.18
2023-04-06T11:53:47.873Z,966.16
2023-04-06T11:54:47.885Z,966.17
2023-04-06T11:55:47.833Z,966.16
2023-04-06T11:56:47.784Z,966.20
2023-04-06T11:57:47.803Z,966.14
2023-04-06T11:58:47.784Z,966.15
2023-04-06T11:59:47.751Z,966.20
2023-04-06T12:00:47.943Z,966.18
2023-04-06T12:01:47.746Z,966.18
2023-04-06T12:02:47.802Z,966.20
2023-04-06T12:03:47.949Z,966.14
2023-04-06T12:04:47.790Z,966.16
2023-04-06T12:05:47.681Z,966.17
2023-04-06T12:06:47.759Z,966.09
2023-04-06T12:07:47.713Z,966.12
2023-04-06T12:08:47.671Z,966.14
2023-04-06T12:09:47.657Z,966.14
2023-04-06T12:10:47.625Z,966.11
2023-04-06T12:11:48.189Z,966.17
2023-04-06T12:12:47.606Z,965.99
2023-04-06T12:13:47.608Z,966.04
2023-04-06T12:14:47.607Z,966.06
2023-04-06T12:15:47.619Z,966.02
2023-04-06T12:16:47.556Z,966.03
2023-04-06T12:17:47.595Z,965.99
2023-04-06T12:18:47.558Z,965.98
2023-04-06T12:19:47.571Z,966.00
2023-04-06T12:20:47.526Z,965.96
2023-04-06T12:21:47.502Z,965.95
2023-04-06T12:22:47.519Z,966.01
2023-04-06T12:23:47.484Z,965.97
2023-04-06T12:24:47.475Z,965.95
2023-04-06T12:25:47.500Z,965.94
2023-04-06T12:26:48.366Z,965.96
2023-04-06T12:27:47.435Z,965.98
2023-04-06T12:28:47.447Z,965.96